N3044K KAJO-KAVX
Flight info
| Callsign | N3044K |
|---|---|
| Flight time | 0h 16m |
| Altitude | 6000 |
| Route | ELB SXC |
| Aircraft | PA24/L-SDGRY/S |
Departure
| Time | 2026-04-18 18:22 |
|---|---|
| Airport | Corona Municipal Airport (KAJO) |
Arrival
| Time | 2026-04-18 18:38 |
|---|---|
| Airport | Catalina Airport (KAVX) |
| Time | Latitude | Longitude | Altitude | Speed | Heading |
|---|---|---|---|---|---|
| 2026-04-18 18:10 | 33.89589 | -117.60292 | 530 ft | 0 kts | 3° |
| 2026-04-18 18:19 | 33.89646 | -117.60291 | 528 ft | 8 kts | 1° |
| 2026-04-18 18:19 | 33.89703 | -117.60272 | 527 ft | 6 kts | 121° |
| 2026-04-18 18:19 | 33.89714 | -117.60240 | 527 ft | 8 kts | 55° |
| 2026-04-18 18:19 | 33.89726 | -117.60162 | 529 ft | 6 kts | 87° |
| 2026-04-18 18:20 | 33.89728 | -117.60084 | 530 ft | 17 kts | 92° |
| 2026-04-18 18:20 | 33.89729 | -117.59909 | 533 ft | 14 kts | 90° |
| 2026-04-18 18:20 | 33.89732 | -117.59825 | 535 ft | 17 kts | 91° |
| 2026-04-18 18:20 | 33.89746 | -117.59757 | 536 ft | 1 kts | 38° |
| 2026-04-18 18:21 | 33.89769 | -117.59837 | 534 ft | 30 kts | 266° |
| 2026-04-18 18:21 | 33.89762 | -117.60362 | 567 ft | 81 kts | 267° |
| 2026-04-18 18:21 | 33.89760 | -117.61042 | 816 ft | 86 kts | 261° |
| 2026-04-18 18:21 | 33.89619 | -117.61782 | 1094 ft | 93 kts | 231° |
| 2026-04-18 18:22 | 33.89043 | -117.62047 | 1335 ft | 94 kts | 168° |
| 2026-04-18 18:22 | 33.88396 | -117.61837 | 1609 ft | 98 kts | 160° |
| 2026-04-18 18:22 | 33.87743 | -117.61574 | 1907 ft | 99 kts | 162° |
| 2026-04-18 18:22 | 33.87068 | -117.61404 | 2233 ft | 98 kts | 176° |
| 2026-04-18 18:23 | 33.86394 | -117.61483 | 2537 ft | 100 kts | 187° |
| 2026-04-18 18:23 | 33.85712 | -117.61638 | 2864 ft | 99 kts | 191° |
| 2026-04-18 18:23 | 33.85041 | -117.61860 | 3138 ft | 101 kts | 200° |
| 2026-04-18 18:23 | 33.84410 | -117.62257 | 3351 ft | 103 kts | 211° |
| 2026-04-18 18:24 | 33.83827 | -117.62790 | 3522 ft | 107 kts | 218° |
| 2026-04-18 18:24 | 33.83233 | -117.63347 | 3738 ft | 108 kts | 217° |
| 2026-04-18 18:24 | 33.82639 | -117.63875 | 4002 ft | 105 kts | 212° |
| 2026-04-18 18:24 | 33.82053 | -117.64419 | 4185 ft | 111 kts | 217° |
| 2026-04-18 18:25 | 33.81470 | -117.65026 | 4440 ft | 109 kts | 218° |
| 2026-04-18 18:25 | 33.80916 | -117.65638 | 4647 ft | 111 kts | 218° |
| 2026-04-18 18:25 | 33.80353 | -117.66278 | 4857 ft | 111 kts | 219° |
| 2026-04-18 18:25 | 33.79747 | -117.66854 | 5029 ft | 112 kts | 206° |
| 2026-04-18 18:26 | 33.79048 | -117.67258 | 5225 ft | 110 kts | 195° |
| 2026-04-18 18:26 | 33.78335 | -117.67598 | 5361 ft | 112 kts | 194° |
| 2026-04-18 18:26 | 33.77608 | -117.67904 | 5537 ft | 109 kts | 195° |
| 2026-04-18 18:26 | 33.76887 | -117.68246 | 5633 ft | 115 kts | 196° |
| 2026-04-18 18:27 | 33.76146 | -117.68574 | 5804 ft | 112 kts | 194° |
| 2026-04-18 18:27 | 33.75418 | -117.68888 | 5948 ft | 112 kts | 196° |
| 2026-04-18 18:27 | 33.74696 | -117.69241 | 6078 ft | 112 kts | 201° |
| 2026-04-18 18:27 | 33.74014 | -117.69715 | 6206 ft | 115 kts | 209° |
| 2026-04-18 18:28 | 33.73384 | -117.70281 | 6333 ft | 115 kts | 213° |
| 2026-04-18 18:28 | 33.72717 | -117.70886 | 6427 ft | 118 kts | 213° |
| 2026-04-18 18:28 | 33.72039 | -117.71450 | 6549 ft | 118 kts | 202° |
| 2026-04-18 18:28 | 33.71280 | -117.71933 | 6550 ft | 125 kts | 206° |
| 2026-04-18 18:29 | 33.70538 | -117.72447 | 6651 ft | 125 kts | 207° |
| 2026-04-18 18:29 | 33.69742 | -117.72981 | 6599 ft | 135 kts | 205° |
| 2026-04-18 18:29 | 33.68854 | -117.73286 | 6662 ft | 132 kts | 181° |
| 2026-04-18 18:29 | 33.67940 | -117.73308 | 6670 ft | 133 kts | 174° |
| 2026-04-18 18:30 | 33.66980 | -117.73312 | 6586 ft | 139 kts | 186° |
| 2026-04-18 18:30 | 33.66119 | -117.73777 | 6615 ft | 140 kts | 218° |
| 2026-04-18 18:30 | 33.65515 | -117.74754 | 6525 ft | 149 kts | 238° |
| 2026-04-18 18:30 | 33.65031 | -117.75944 | 6286 ft | 164 kts | 244° |
| 2026-04-18 18:31 | 33.64649 | -117.77211 | 6299 ft | 157 kts | 250° |
| 2026-04-18 18:31 | 33.64414 | -117.78446 | 6352 ft | 152 kts | 261° |
| 2026-04-18 18:31 | 33.64260 | -117.79725 | 6267 ft | 156 kts | 258° |
| 2026-04-18 18:31 | 33.64002 | -117.80983 | 6246 ft | 155 kts | 252° |
| 2026-04-18 18:32 | 33.63587 | -117.82177 | 6208 ft | 154 kts | 244° |
| 2026-04-18 18:32 | 33.63152 | -117.83333 | 6209 ft | 153 kts | 244° |
| 2026-04-18 18:32 | 33.62686 | -117.84481 | 6173 ft | 154 kts | 240° |
| 2026-04-18 18:32 | 33.62194 | -117.85606 | 6196 ft | 151 kts | 239° |
| 2026-04-18 18:33 | 33.61684 | -117.86706 | 6210 ft | 150 kts | 238° |
| 2026-04-18 18:33 | 33.61180 | -117.87810 | 6171 ft | 153 kts | 239° |
| 2026-04-18 18:33 | 33.60635 | -117.88924 | 6114 ft | 157 kts | 236° |
| 2026-04-18 18:33 | 33.60031 | -117.89986 | 6200 ft | 151 kts | 234° |
| 2026-04-18 18:34 | 33.58614 | -117.92828 | 5853 ft | 160 kts | 238° |
| 2026-04-18 18:34 | 33.56642 | -117.97656 | 5543 ft | 160 kts | 244° |
| 2026-04-18 18:34 | 33.54851 | -118.02467 | 5516 ft | 157 kts | 246° |
| 2026-04-18 18:34 | 33.52566 | -118.08567 | 5788 ft | 152 kts | 245° |
| 2026-04-18 18:35 | 33.48670 | -118.17654 | 5554 ft | 154 kts | 239° |
| 2026-04-18 18:35 | 33.44582 | -118.26562 | 5814 ft | 152 kts | 242° |
| 2026-04-18 18:35 | 33.43472 | -118.29226 | 5695 ft | 154 kts | 242° |
| 2026-04-18 18:35 | 33.42989 | -118.30389 | 5613 ft | 157 kts | 242° |
| 2026-04-18 18:36 | 33.42506 | -118.31573 | 5500 ft | 160 kts | 243° |
| 2026-04-18 18:36 | 33.41982 | -118.32806 | 5023 ft | 170 kts | 240° |
| 2026-04-18 18:36 | 33.41557 | -118.34136 | 4562 ft | 169 kts | 268° |
| 2026-04-18 18:36 | 33.41528 | -118.35465 | 4252 ft | 155 kts | 286° |
| 2026-04-18 18:37 | 33.41832 | -118.36685 | 3582 ft | 156 kts | 307° |
| 2026-04-18 18:37 | 33.42365 | -118.37909 | 2996 ft | 160 kts | 280° |
| 2026-04-18 18:37 | 33.41928 | -118.39068 | 2552 ft | 139 kts | 243° |
| 2026-04-18 18:37 | 33.41479 | -118.39992 | 2164 ft | 120 kts | 243° |
| 2026-04-18 18:38 | 33.41154 | -118.40497 | 1904 ft | 109 kts | 243° |
| 2026-04-18 18:38 | 33.40735 | -118.41178 | 1582 ft | 92 kts | 233° |
| 2026-04-18 18:38 | 33.40440 | -118.41682 | 1582 ft | 53 kts | 228° |
| 2026-04-18 18:38 | 33.40334 | -118.41864 | 1591 ft | 3 kts | 230° |
| 2026-04-18 18:39 | 33.40274 | -118.41958 | 1600 ft | 14 kts | 230° |
| 2026-04-18 18:39 | 33.40238 | -118.41983 | 1604 ft | 14 kts | 156° |
| 2026-04-18 18:39 | 33.40226 | -118.41957 | 1608 ft | 6 kts | 79° |
| 2026-04-18 18:39 | 33.40279 | -118.41910 | 1596 ft | 13 kts | 67° |
| 2026-04-18 18:40 | 33.40301 | -118.41844 | 1592 ft | 1 kts | 72° |
| 2026-04-18 18:40 | 33.40335 | -118.41785 | 1588 ft | 18 kts | 56° |
| 2026-04-18 18:40 | 33.40380 | -118.41708 | 1584 ft | 17 kts | 73° |
| 2026-04-18 18:40 | 33.40349 | -118.41618 | 1586 ft | 17 kts | 106° |
| 2026-04-18 18:41 | 33.40350 | -118.41535 | 1586 ft | 9 kts | 66° |
| 2026-04-18 18:41 | 33.40380 | -118.41535 | 1583 ft | 4 kts | 304° |
| 2026-04-18 18:41 | 33.40381 | -118.41537 | 1583 ft | 0 kts | 298° |